x

C10 - Navy-2 (42013) Weather Station

2:30am - Tue 22nd Jan 2019 All times are EST. -5 hours from GMT.

  • Wind
    20mph, 25mph gusts
  • Sea Temp 65°f
  • Air Temp 56°f
  • Sea Pressure 1026.4mb
  • C10 - Navy-2
  • C10 - Navy-2

More Historic Weather Station data

Upgrade to MSW Pro to gain access to the past 30 days of data for over 8000 Wavebouys and Weather Stations around the globe.

Join

Comparision Forecast

View Surf forecast
   
Tue 01/22 2:30am 20 25 mph 1026.4mb 65f 56f
2:00am 18 22 mph 1026.7mb 65f 57f
Mon 01/21 8:30pm 7 9 mph 1027.2mb 65f 60f
8:00pm 9 11 mph 1026.9mb 65f 59f
7:30pm 7 11 mph 1026.7mb 65f 58f
7:00pm 9 11 mph 1026.4mb 65f 58f
6:30pm 7 11 mph 1026.4mb 65f 58f
6:00pm 9 13 mph 1026.4mb 65f 58f
5:30pm 9 13 mph 1026.3mb 65f 58f
5:00pm 7 9 mph 1025.9mb 65f 58f
3:30pm 7 13 mph 1025.5mb 65f 56f
3:00pm 7 11 mph 1025.4mb 65f 56f
10:30am 13 16 mph 1026.8mb 65f 50f
10:00am 16 20 mph 1026.5mb 65f 50f
9:30am 16 22 mph 1026.2mb 65f 50f
9:00am 18 25 mph 1025.6mb 65f 50f
8:30am 18 22 mph 1025.4mb 65f 50f
8:00am 18 25 mph 1025.1mb 65f 51f
7:30am 18 20 mph 1024.8mb 65f 51f
7:00am 16 22 mph 1024.5mb 65f 52f
6:30am 16 22 mph 1024.1mb 65f 52f
6:00am 18 22 mph 1023.8mb 65f 52f
4:30am 16 22 mph 1023.1mb 65f 52f
4:00am 18 22 mph 1023.4mb 65f 53f
3:30am 18 25 mph 1023mb 65f 54f
3:00am 18 25 mph 1023mb 65f 54f
2:30am 20 25 mph 1023mb 66f 55f
2:00am 18 25 mph 1023.2mb 66f 55f
1:30am 18 27 mph 1023mb 66f 55f
1:00am 18 25 mph 1022.7mb 66f 56f
12:30am 18 22 mph 1022.6mb 65f 55f
12:00am 18 25 mph 1022.4mb 65f 56f
Sun 01/20 11:30pm 20 25 mph 1022.5mb 66f 56f
11:00pm 20 27 mph 1022.4mb 66f 56f
10:30pm 20 29 mph 1022.2mb 66f 56f
10:00pm 22 29 mph 1021.9mb 66f 56f
9:30pm 22 29 mph 1021.4mb 66f 56f
9:00pm 20 27 mph 1020.9mb 66f 57f
8:30pm 22 31 mph 1020.7mb 66f 58f
8:00pm 22 29 mph 1020mb 66f 57f
7:30pm 22 29 mph 1019.4mb 66f 57f
7:00pm 22 29 mph 1018.9mb 66f 58f
6:30pm 22 29 mph 1018.5mb 66f 58f
6:00pm 22 31 mph 1018.4mb 66f 58f
5:30pm 25 34 mph 1017.9mb 66f 58f
5:00pm 25 31 mph 1017.6mb 66f 58f
4:30pm 27 31 mph 1017.1mb 66f 59f
4:00pm 25 31 mph 1017mb 66f 59f
3:30pm 25 31 mph 1016.6mb 66f 59f
3:00pm 27 31 mph 1016.5mb 66f 59f
2:30pm 27 34 mph 1016.4mb 66f 60f
2:00pm 25 34 mph 1016.2mb 66f 59f
1:30pm 22 29 mph 1016.5mb 66f 59f
1:00pm 25 31 mph 1016.5mb 66f 60f
12:30pm 27 34 mph 1016.4mb 66f 60f
12:00pm 27 34 mph 1016.5mb 66f 62f
11:30am 29 36 mph 1016.4mb 66f 62f
11:00am 27 34 mph 1015.9mb 66f 63f
10:30am 25 31 mph 1015.3mb 66f 63f
10:00am 25 34 mph 1014.8mb 66f 64f
9:30am 25 31 mph 1014.6mb 66f 64f
9:00am 27 34 mph 1014.3mb 66f 64f
8:30am 25 34 mph 1013.8mb 66f 64f
8:00am 29 36 mph 1013.2mb 66f 64f
7:30am 27 34 mph 1012.8mb 66f 65f
7:00am 27 34 mph 1012.2mb 66f 65f
6:30am 25 34 mph 1011.8mb 66f 66f
6:00am 27 36 mph 1011.3mb 66f 66f
5:30am 25 34 mph 1010.6mb 66f 66f
5:00am 25 31 mph 1010.3mb 66f 67f
4:30am 25 29 mph 1010.5mb 66f 67f
4:00am 27 34 mph 1010.2mb 66f 67f
3:30am 22 31 mph 1010mb 66f 67f
3:00am 20 27 mph 1009.4mb 66f 69f
2:30am 22 27 mph 1009.2mb 66f 68f
2:00am 25 29 mph 1009.6mb 66f 68f
1:30am 27 36 mph 1009.8mb 66f 68f
1:00am 25 31 mph 1010.2mb 66f 69f
12:30am 20 27 mph 1010.5mb 66f 69f
12:00am 20 25 mph 1011mb 66f 69f
Sat 01/19 11:30pm 20 22 mph 1011.3mb 66f 68f
11:00pm 20 22 mph 1011.5mb 66f 68f
10:30pm 20 22 mph 1011.5mb 66f 68f
10:00pm 20 25 mph 1011.4mb 66f 68f
9:30pm 20 25 mph 1011.9mb 66f 68f
9:00pm 20 25 mph 1012.1mb 66f 68f
8:30pm 20 25 mph 1012.4mb 66f 68f
8:00pm 18 22 mph 1012.5mb 66f 68f
7:30pm 20 22 mph 1012.7mb 66f 68f
7:00pm 18 22 mph 1012.7mb 66f 68f
6:30pm 18 22 mph 1012.8mb 66f 68f
6:00pm 16 20 mph 1013.1mb 66f 68f
5:30pm 16 18 mph 1013.3mb 66f 68f
5:00pm 16 20 mph 1013.6mb 66f 68f
4:30pm 18 20 mph 1013.4mb 66f 68f
4:00pm 16 20 mph 1013.5mb 66f 68f
3:30pm 18 20 mph 1013.8mb 66f 68f
3:00pm 18 22 mph 1013.9mb 66f 68f
2:30pm 18 22 mph 1014.2mb 66f 68f
2:00pm 18 20 mph 1014.5mb 66f 68f
1:30pm 18 22 mph 1014.8mb 66f 67f
1:00pm 13 18 mph 1016.1mb 66f 67f
12:30pm 13 18 mph 1016.8mb 66f 67f
12:00pm 13 16 mph 1017.3mb 66f 67f
11:30am 13 18 mph 1017.6mb 66f 67f
11:00am 13 16 mph 1017.8mb 66f 67f
10:30am 11 13 mph 1017.8mb 66f 67f
10:00am 11 13 mph 1018mb 66f 66f
9:30am 11 13 mph 1018mb 66f 66f
9:00am 9 11 mph 1018mb 66f 66f
8:30am 11 13 mph 1017.9mb 66f 65f
8:00am 9 11 mph 1017.5mb 66f 66f
7:30am 9 13 mph 1017.3mb 66f 65f
7:00am 9 11 mph 1017.2mb 65f 65f
6:30am 9 11 mph 1017.2mb 65f 65f
6:00am 11 11 mph 1017.4mb 65f 65f
5:30am 9 11 mph 1017.4mb 65f 65f
5:00am 9 9 mph 1017.7mb 65f 65f
4:30am 7 9 mph 1018mb 65f 64f
4:00am 7 9 mph 1018.1mb 65f 64f
3:30am 9 9 mph 1018.2mb 65f 64f
3:00am 9 11 mph 1018.5mb 65f 64f
2:30am 9 9 mph 1018.6mb 66f 64f
2:00am 9 9 mph 1018.9mb 66f 64f
Fri 01/18 11:30pm 9 9 mph 1019.8mb 66f 64f
11:00pm 7 9 mph 1020mb 66f 64f
10:30pm 7 7 mph 1020mb 66f 65f
10:00pm 4 4 mph 1020.2mb 66f 65f
9:30pm 2 2 mph 1020.2mb 66f 65f
9:00pm 2 2 mph 1020.3mb 66f 65f
8:30pm 2 2 mph 1020.3mb 66f 65f
8:00pm 2 2 mph 1020.1mb 66f 65f
7:30pm 2 2 mph 1019.8mb 66f 65f
7:00pm 2 4 mph 1019.6mb 66f 65f
6:30pm 4 4 mph 1019.6mb 66f 65f
6:00pm 2 2 mph 1019.5mb 66f 65f
5:30pm 2 4 mph 1019.5mb 67f 66f
5:00pm 2 4 mph 1019.6mb 67f 65f
4:30pm 2 4 mph 1019.7mb 67f 65f
4:00pm 2 4 mph 1019.9mb 67f 65f
3:30pm 2 4 mph 1019.8mb 67f 64f
3:00pm 4 4 mph 1019.8mb 67f 64f
2:30pm 2 4 mph 1019.9mb 67f 64f
2:00pm 2 4 mph 1020.3mb 66f 63f
1:30pm 2 4 mph 1020.6mb 66f 64f
1:00pm 2 4 mph 1021.3mb 66f 63f
12:30pm 2 4 mph 1021.8mb 66f 63f
12:00pm 2 4 mph 1022.2mb 66f 62f